sensor_id;sensor_type;location;lat;lon;timestamp;temperature;humidity
54796;DHT22;40693;43.884;20.340;2022-12-05T00:00:34;153.70;2252.80
54796;DHT22;40693;43.884;20.340;2022-12-05T00:03:04;153.70;2252.80
54796;DHT22;40693;43.884;20.340;2022-12-05T00:05:30;153.70;2252.80
54796;DHT22;40693;43.884;20.340;2022-12-05T00:07:56;153.70;2252.80
54796;DHT22;40693;43.884;20.340;2022-12-05T00:10:21;153.70;2252.80
54796;DHT22;40693;43.884;20.340;2022-12-05T00:12:47;153.70;2252.80
54796;DHT22;40693;43.884;20.340;2022-12-05T00:15:12;153.70;2252.80
54796;DHT22;40693;43.884;20.340;2022-12-05T00:17:38;153.80;2252.80
54796;DHT22;40693;43.884;20.340;2022-12-05T00:20:05;153.80;2252.80
54796;DHT22;40693;43.884;20.340;2022-12-05T00:22:31;153.80;2252.80
54796;DHT22;40693;43.884;20.340;2022-12-05T00:24:59;153.90;2252.80
54796;DHT22;40693;43.884;20.340;2022-12-05T00:27:24;153.80;2252.80
54796;DHT22;40693;43.884;20.340;2022-12-05T00:29:50;153.80;2252.80
54796;DHT22;40693;43.884;20.340;2022-12-05T00:32:15;153.90;2252.80
54796;DHT22;40693;43.884;20.340;2022-12-05T00:34:41;153.90;2252.80
54796;DHT22;40693;43.884;20.340;2022-12-05T00:37:07;153.90;2252.80
54796;DHT22;40693;43.884;20.340;2022-12-05T00:39:32;153.90;2252.80
54796;DHT22;40693;43.884;20.340;2022-12-05T00:41:58;154.00;2252.80
54796;DHT22;40693;43.884;20.340;2022-12-05T00:44:23;154.00;2252.80
54796;DHT22;40693;43.884;20.340;2022-12-05T00:46:49;154.00;2252.80
54796;DHT22;40693;43.884;20.340;2022-12-05T00:49:14;154.00;2252.80
54796;DHT22;40693;43.884;20.340;2022-12-05T00:51:41;154.00;2252.80
54796;DHT22;40693;43.884;20.340;2022-12-05T00:54:08;154.00;2252.80
54796;DHT22;40693;43.884;20.340;2022-12-05T00:56:34;154.00;2252.80
54796;DHT22;40693;43.884;20.340;2022-12-05T00:59:00;154.00;2252.80
54796;DHT22;40693;43.884;20.340;2022-12-05T01:01:30;154.00;2252.80
54796;DHT22;40693;43.884;20.340;2022-12-05T01:03:57;154.00;2252.80
54796;DHT22;40693;43.884;20.340;2022-12-05T01:06:24;154.00;2252.80
54796;DHT22;40693;43.884;20.340;2022-12-05T01:08:51;153.80;2252.80
54796;DHT22;40693;43.884;20.340;2022-12-05T01:11:17;153.70;2252.80
54796;DHT22;40693;43.884;20.340;2022-12-05T01:13:43;128.90;2252.80
54796;DHT22;40693;43.884;20.340;2022-12-05T01:16:14;128.90;2252.80
54796;DHT22;40693;43.884;20.340;2022-12-05T01:18:40;128.90;2252.80
54796;DHT22;40693;43.884;20.340;2022-12-05T01:21:06;128.90;2252.80
54796;DHT22;40693;43.884;20.340;2022-12-05T01:23:32;128.90;2252.80
54796;DHT22;40693;43.884;20.340;2022-12-05T01:25:57;128.90;2252.80
54796;DHT22;40693;43.884;20.340;2022-12-05T01:28:23;128.90;2252.80
54796;DHT22;40693;43.884;20.340;2022-12-05T01:30:48;128.90;2252.80
54796;DHT22;40693;43.884;20.340;2022-12-05T01:33:15;128.80;2252.80
54796;DHT22;40693;43.884;20.340;2022-12-05T01:35:41;128.80;2252.80
54796;DHT22;40693;43.884;20.340;2022-12-05T01:38:07;128.80;2252.80
54796;DHT22;40693;43.884;20.340;2022-12-05T01:40:34;128.70;2252.80
54796;DHT22;40693;43.884;20.340;2022-12-05T01:43:03;128.60;2252.80
54796;DHT22;40693;43.884;20.340;2022-12-05T01:45:33;128.90;2252.80
54796;DHT22;40693;43.884;20.340;2022-12-05T01:48:00;128.40;2252.80
54796;DHT22;40693;43.884;20.340;2022-12-05T01:50:26;128.40;2252.80
54796;DHT22;40693;43.884;20.340;2022-12-05T01:52:51;128.40;2252.80
54796;DHT22;40693;43.884;20.340;2022-12-05T01:55:17;128.40;2252.80
54796;DHT22;40693;43.884;20.340;2022-12-05T01:57:44;128.40;2252.80
54796;DHT22;40693;43.884;20.340;2022-12-05T02:00:11;128.40;2252.80
54796;DHT22;40693;43.884;20.340;2022-12-05T02:02:38;128.40;2252.80
54796;DHT22;40693;43.884;20.340;2022-12-05T02:05:08;128.40;2252.80
54796;DHT22;40693;43.884;20.340;2022-12-05T02:07:36;128.30;2252.80
54796;DHT22;40693;43.884;20.340;2022-12-05T02:10:03;128.30;2252.80
54796;DHT22;40693;43.884;20.340;2022-12-05T02:12:28;128.30;2252.80
54796;DHT22;40693;43.884;20.340;2022-12-05T02:17:45;128.30;2252.80
54796;DHT22;40693;43.884;20.340;2022-12-05T02:21:02;128.10;2252.80
54796;DHT22;40693;43.884;20.340;2022-12-05T02:38:36;128.10;2252.80
54796;DHT22;40693;43.884;20.340;2022-12-05T02:43:39;128.10;2252.80
54796;DHT22;40693;43.884;20.340;2022-12-05T02:46:10;128.10;2252.80
54796;DHT22;40693;43.884;20.340;2022-12-05T02:48:37;128.10;2252.80
54796;DHT22;40693;43.884;20.340;2022-12-05T02:51:03;128.10;2252.80
54796;DHT22;40693;43.884;20.340;2022-12-05T02:53:29;128.10;2252.80
54796;DHT22;40693;43.884;20.340;2022-12-05T02:55:55;128.10;2252.80
54796;DHT22;40693;43.884;20.340;2022-12-05T02:58:22;128.10;2252.80
54796;DHT22;40693;43.884;20.340;2022-12-05T03:00:48;128.00;2252.80
54796;DHT22;40693;43.884;20.340;2022-12-05T03:03:15;128.10;2252.80
54796;DHT22;40693;43.884;20.340;2022-12-05T03:08:28;128.10;2252.80
54796;DHT22;40693;43.884;20.340;2022-12-05T03:10:55;128.10;2252.80
54796;DHT22;40693;43.884;20.340;2022-12-05T03:13:26;128.10;2252.80
54796;DHT22;40693;43.884;20.340;2022-12-05T03:15:54;128.10;2252.80
54796;DHT22;40693;43.884;20.340;2022-12-05T03:18:24;128.10;2252.80
54796;DHT22;40693;43.884;20.340;2022-12-05T03:20:53;128.10;2252.80
54796;DHT22;40693;43.884;20.340;2022-12-05T03:23:29;128.00;2252.80
54796;DHT22;40693;43.884;20.340;2022-12-05T03:28:33;103.30;2227.20
54796;DHT22;40693;43.884;20.340;2022-12-05T03:31:03;103.30;2227.20
54796;DHT22;40693;43.884;20.340;2022-12-05T03:33:33;103.30;2227.20
54796;DHT22;40693;43.884;20.340;2022-12-05T03:36:01;103.30;2227.20
54796;DHT22;40693;43.884;20.340;2022-12-05T03:38:34;128.00;2252.80
54796;DHT22;40693;43.884;20.340;2022-12-05T03:41:21;128.00;2252.80
54796;DHT22;40693;43.884;20.340;2022-12-05T03:48:55;128.00;2252.80
54796;DHT22;40693;43.884;20.340;2022-12-05T03:51:24;128.00;2252.80
54796;DHT22;40693;43.884;20.340;2022-12-05T03:56:18;128.00;2252.80
54796;DHT22;40693;43.884;20.340;2022-12-05T04:01:42;128.00;2252.80
54796;DHT22;40693;43.884;20.340;2022-12-05T04:04:19;128.00;2252.80
54796;DHT22;40693;43.884;20.340;2022-12-05T04:06:46;128.00;2252.80
54796;DHT22;40693;43.884;20.340;2022-12-05T04:09:15;128.00;2252.80
54796;DHT22;40693;43.884;20.340;2022-12-05T04:11:44;128.00;2252.80
54796;DHT22;40693;43.884;20.340;2022-12-05T04:14:21;103.30;2227.20
54796;DHT22;40693;43.884;20.340;2022-12-05T04:19:47;103.30;2227.20
54796;DHT22;40693;43.884;20.340;2022-12-05T04:22:34;103.30;2227.20
54796;DHT22;40693;43.884;20.340;2022-12-05T04:25:00;103.30;2227.20
54796;DHT22;40693;43.884;20.340;2022-12-05T04:30:38;103.30;2227.20
54796;DHT22;40693;43.884;20.340;2022-12-05T04:33:14;103.30;2227.20
54796;DHT22;40693;43.884;20.340;2022-12-05T04:35:53;103.30;2227.20
54796;DHT22;40693;43.884;20.340;2022-12-05T04:38:27;103.30;2227.20
54796;DHT22;40693;43.884;20.340;2022-12-05T04:40:58;103.30;2227.20
54796;DHT22;40693;43.884;20.340;2022-12-05T04:43:25;103.20;2227.20
54796;DHT22;40693;43.884;20.340;2022-12-05T04:45:51;103.20;2227.20
54796;DHT22;40693;43.884;20.340;2022-12-05T04:48:18;103.20;2227.20
54796;DHT22;40693;43.884;20.340;2022-12-05T04:50:47;103.20;2227.20
54796;DHT22;40693;43.884;20.340;2022-12-05T04:53:13;103.20;2227.20
54796;DHT22;40693;43.884;20.340;2022-12-05T04:55:41;103.20;2227.20
54796;DHT22;40693;43.884;20.340;2022-12-05T04:58:11;103.20;2227.20
54796;DHT22;40693;43.884;20.340;2022-12-05T05:03:16;103.20;2227.20
54796;DHT22;40693;43.884;20.340;2022-12-05T05:05:47;103.20;2227.20
54796;DHT22;40693;43.884;20.340;2022-12-05T05:08:17;103.20;2227.20
54796;DHT22;40693;43.884;20.340;2022-12-05T05:10:55;103.20;2227.20
54796;DHT22;40693;43.884;20.340;2022-12-05T05:13:22;103.20;2227.20
54796;DHT22;40693;43.884;20.340;2022-12-05T05:15:47;103.20;2227.20
54796;DHT22;40693;43.884;20.340;2022-12-05T05:18:14;103.20;2227.20
54796;DHT22;40693;43.884;20.340;2022-12-05T05:20:40;103.20;2227.20
54796;DHT22;40693;43.884;20.340;2022-12-05T05:23:05;103.20;2227.20
54796;DHT22;40693;43.884;20.340;2022-12-05T05:25:31;103.10;2227.20
54796;DHT22;40693;43.884;20.340;2022-12-05T05:27:56;103.10;2227.20
54796;DHT22;40693;43.884;20.340;2022-12-05T05:30:22;103.10;2227.20
54796;DHT22;40693;43.884;20.340;2022-12-05T05:32:48;103.20;2227.20
54796;DHT22;40693;43.884;20.340;2022-12-05T05:35:14;103.20;2227.20
54796;DHT22;40693;43.884;20.340;2022-12-05T05:37:40;103.10;2227.20
54796;DHT22;40693;43.884;20.340;2022-12-05T05:40:06;103.20;2227.20
54796;DHT22;40693;43.884;20.340;2022-12-05T05:42:32;103.20;2227.20
54796;DHT22;40693;43.884;20.340;2022-12-05T05:44:58;103.10;2227.20
54796;DHT22;40693;43.884;20.340;2022-12-05T05:47:24;103.10;2227.20
54796;DHT22;40693;43.884;20.340;2022-12-05T05:49:49;103.10;2227.20
54796;DHT22;40693;43.884;20.340;2022-12-05T05:52:15;103.10;2227.20
54796;DHT22;40693;43.884;20.340;2022-12-05T05:54:41;103.10;2227.20
54796;DHT22;40693;43.884;20.340;2022-12-05T05:57:07;103.10;2227.20
54796;DHT22;40693;43.884;20.340;2022-12-05T05:59:32;103.10;2227.20
54796;DHT22;40693;43.884;20.340;2022-12-05T06:01:58;103.20;2227.20
54796;DHT22;40693;43.884;20.340;2022-12-05T06:04:24;103.20;2227.20
54796;DHT22;40693;43.884;20.340;2022-12-05T06:06:50;103.20;2227.20
54796;DHT22;40693;43.884;20.340;2022-12-05T06:09:15;103.20;2227.20
54796;DHT22;40693;43.884;20.340;2022-12-05T06:11:41;103.20;2227.20
54796;DHT22;40693;43.884;20.340;2022-12-05T06:14:07;103.20;2227.20
54796;DHT22;40693;43.884;20.340;2022-12-05T06:16:33;103.30;2227.20
54796;DHT22;40693;43.884;20.340;2022-12-05T06:18:58;128.00;2252.80
54796;DHT22;40693;43.884;20.340;2022-12-05T06:21:24;128.00;2252.80
54796;DHT22;40693;43.884;20.340;2022-12-05T06:23:50;128.00;2252.80
54796;DHT22;40693;43.884;20.340;2022-12-05T06:26:17;128.00;2252.80
54796;DHT22;40693;43.884;20.340;2022-12-05T06:28:43;128.10;2252.80
54796;DHT22;40693;43.884;20.340;2022-12-05T06:31:09;128.10;2252.80
54796;DHT22;40693;43.884;20.340;2022-12-05T06:33:35;128.20;2252.80
54796;DHT22;40693;43.884;20.340;2022-12-05T06:36:04;128.80;2252.80
54796;DHT22;40693;43.884;20.340;2022-12-05T06:38:30;128.30;2252.80
54796;DHT22;40693;43.884;20.340;2022-12-05T06:40:56;128.40;2252.80
54796;DHT22;40693;43.884;20.340;2022-12-05T06:43:22;128.50;2252.80
54796;DHT22;40693;43.884;20.340;2022-12-05T06:45:47;128.60;2252.80
54796;DHT22;40693;43.884;20.340;2022-12-05T06:48:13;128.60;2252.80
54796;DHT22;40693;43.884;20.340;2022-12-05T06:50:38;128.80;2252.80
54796;DHT22;40693;43.884;20.340;2022-12-05T06:53:04;128.90;2252.80
54796;DHT22;40693;43.884;20.340;2022-12-05T06:55:30;128.90;2252.80
54796;DHT22;40693;43.884;20.340;2022-12-05T06:57:56;153.60;2252.80
54796;DHT22;40693;43.884;20.340;2022-12-05T07:00:21;153.70;2252.80
54796;DHT22;40693;43.884;20.340;2022-12-05T07:03:05;153.70;2252.80
54796;DHT22;40693;43.884;20.340;2022-12-05T07:05:31;153.80;2252.80
54796;DHT22;40693;43.884;20.340;2022-12-05T07:07:57;153.70;2252.80
54796;DHT22;40693;43.884;20.340;2022-12-05T07:10:22;153.90;2252.80
54796;DHT22;40693;43.884;20.340;2022-12-05T07:12:48;153.90;2252.80
54796;DHT22;40693;43.884;20.340;2022-12-05T07:15:14;154.00;2252.80
54796;DHT22;40693;43.884;20.340;2022-12-05T07:17:39;154.00;2252.80
54796;DHT22;40693;43.884;20.340;2022-12-05T07:20:05;154.10;2252.80
54796;DHT22;40693;43.884;20.340;2022-12-05T07:22:33;154.00;2252.80
54796;DHT22;40693;43.884;20.340;2022-12-05T07:24:59;154.00;2252.80
54796;DHT22;40693;43.884;20.340;2022-12-05T07:27:25;154.10;2252.80
54796;DHT22;40693;43.884;20.340;2022-12-05T07:29:51;154.10;2252.80
54796;DHT22;40693;43.884;20.340;2022-12-05T07:32:16;154.20;2252.80
54796;DHT22;40693;43.884;20.340;2022-12-05T07:34:42;154.30;2252.80
54796;DHT22;40693;43.884;20.340;2022-12-05T07:37:07;154.40;2252.80
54796;DHT22;40693;43.884;20.340;2022-12-05T07:39:33;154.40;2252.80
54796;DHT22;40693;43.884;20.340;2022-12-05T07:41:59;154.50;2252.80
54796;DHT22;40693;43.884;20.340;2022-12-05T07:44:24;154.50;2252.80
54796;DHT22;40693;43.884;20.340;2022-12-05T07:46:50;179.20;2252.80
54796;DHT22;40693;43.884;20.340;2022-12-05T07:49:15;179.20;2252.80
54796;DHT22;40693;43.884;20.340;2022-12-05T07:51:41;179.30;2252.80
54796;DHT22;40693;43.884;20.340;2022-12-05T07:54:07;179.50;2252.80
54796;DHT22;40693;43.884;20.340;2022-12-05T07:56:32;179.50;2252.80
54796;DHT22;40693;43.884;20.340;2022-12-05T07:58:58;179.60;2252.80
54796;DHT22;40693;43.884;20.340;2022-12-05T08:01:24;179.60;2252.80
54796;DHT22;40693;43.884;20.340;2022-12-05T08:03:54;179.60;2252.80
54796;DHT22;40693;43.884;20.340;2022-12-05T08:06:21;179.60;2252.80
54796;DHT22;40693;43.884;20.340;2022-12-05T08:08:47;179.80;2252.80
54796;DHT22;40693;43.884;20.340;2022-12-05T08:11:16;179.80;2252.80
54796;DHT22;40693;43.884;20.340;2022-12-05T08:13:43;179.90;2252.80
54796;DHT22;40693;43.884;20.340;2022-12-05T08:16:10;180.00;2252.80
54796;DHT22;40693;43.884;20.340;2022-12-05T08:18:36;180.10;2252.80
54796;DHT22;40693;43.884;20.340;2022-12-05T08:21:05;204.80;2252.80
54796;DHT22;40693;43.884;20.340;2022-12-05T08:23:31;204.80;2252.80
54796;DHT22;40693;43.884;20.340;2022-12-05T08:26:01;204.80;2252.80
54796;DHT22;40693;43.884;20.340;2022-12-05T08:28:27;204.90;2252.80
54796;DHT22;40693;43.884;20.340;2022-12-05T08:30:52;204.90;2252.80
54796;DHT22;40693;43.884;20.340;2022-12-05T08:33:18;205.00;2252.80
54796;DHT22;40693;43.884;20.340;2022-12-05T08:35:43;205.10;2252.80
54796;DHT22;40693;43.884;20.340;2022-12-05T08:38:09;205.20;2252.80
54796;DHT22;40693;43.884;20.340;2022-12-05T08:40:34;205.30;2252.80
54796;DHT22;40693;43.884;20.340;2022-12-05T08:43:00;205.30;2252.80
54796;DHT22;40693;43.884;20.340;2022-12-05T08:45:25;205.40;2252.80
54796;DHT22;40693;43.884;20.340;2022-12-05T08:47:51;205.50;2252.80
54796;DHT22;40693;43.884;20.340;2022-12-05T08:50:17;205.60;2252.80
54796;DHT22;40693;43.884;20.340;2022-12-05T08:52:42;205.70;2252.80
54796;DHT22;40693;43.884;20.340;2022-12-05T08:55:08;205.70;2252.80
54796;DHT22;40693;43.884;20.340;2022-12-05T08:57:33;230.50;2252.80
54796;DHT22;40693;43.884;20.340;2022-12-05T08:59:59;230.60;2252.80
54796;DHT22;40693;43.884;20.340;2022-12-05T09:02:25;230.70;2252.80
54796;DHT22;40693;43.884;20.340;2022-12-05T09:04:50;230.90;2252.80
54796;DHT22;40693;43.884;20.340;2022-12-05T09:07:19;231.10;2252.80
54796;DHT22;40693;43.884;20.340;2022-12-05T09:09:44;256.00;2252.80
54796;DHT22;40693;43.884;20.340;2022-12-05T09:12:10;256.20;2252.80
54796;DHT22;40693;43.884;20.340;2022-12-05T09:14:35;256.40;2252.80
54796;DHT22;40693;43.884;20.340;2022-12-05T09:17:01;256.60;2252.80
54796;DHT22;40693;43.884;20.340;2022-12-05T09:19:28;281.70;2278.40
54796;DHT22;40693;43.884;20.340;2022-12-05T09:21:54;281.60;2278.40
54796;DHT22;40693;43.884;20.340;2022-12-05T09:24:20;281.60;2278.40
54796;DHT22;40693;43.884;20.340;2022-12-05T09:26:46;281.60;2278.40
54796;DHT22;40693;43.884;20.340;2022-12-05T09:29:12;256.90;2252.80
54796;DHT22;40693;43.884;20.340;2022-12-05T09:31:38;281.60;2278.40
54796;DHT22;40693;43.884;20.340;2022-12-05T09:34:03;281.60;2278.40
54796;DHT22;40693;43.884;20.340;2022-12-05T09:36:29;256.80;2252.80
54796;DHT22;40693;43.884;20.340;2022-12-05T09:38:58;256.80;2252.80
54796;DHT22;40693;43.884;20.340;2022-12-05T09:46:59;256.90;2252.80
54796;DHT22;40693;43.884;20.340;2022-12-05T09:49:26;281.80;2278.40
54796;DHT22;40693;43.884;20.340;2022-12-05T09:51:53;282.00;2278.40
54796;DHT22;40693;43.884;20.340;2022-12-05T09:54:19;282.10;2278.40
54796;DHT22;40693;43.884;20.340;2022-12-05T09:56:45;282.40;2278.40
54796;DHT22;40693;43.884;20.340;2022-12-05T09:59:13;307.30;2304.00
54796;DHT22;40693;43.884;20.340;2022-12-05T10:12:51;384.40;2176.00
54796;DHT22;40693;43.884;20.340;2022-12-05T10:15:41;409.70;2099.20
54796;DHT22;40693;43.884;20.340;2022-12-05T10:23:05;435.40;1945.60
54796;DHT22;40693;43.884;20.340;2022-12-05T10:25:33;435.90;1868.80
54796;DHT22;40693;43.884;20.340;2022-12-05T10:28:00;436.10;1817.60
54796;DHT22;40693;43.884;20.340;2022-12-05T10:30:28;460.90;1817.60
54796;DHT22;40693;43.884;20.340;2022-12-05T10:32:55;461.30;1817.60
54796;DHT22;40693;43.884;20.340;2022-12-05T10:35:25;461.70;1792.00
54796;DHT22;40693;43.884;20.340;2022-12-05T10:37:52;486.60;1766.40
54796;DHT22;40693;43.884;20.340;2022-12-05T10:40:19;486.80;1715.20
54796;DHT22;40693;43.884;20.340;2022-12-05T10:42:45;486.70;1715.20
54796;DHT22;40693;43.884;20.340;2022-12-05T10:45:29;486.70;1740.80
54796;DHT22;40693;43.884;20.340;2022-12-05T10:47:55;486.80;1689.60
54796;DHT22;40693;43.884;20.340;2022-12-05T10:50:23;486.90;1689.60
54796;DHT22;40693;43.884;20.340;2022-12-05T10:52:50;487.00;1638.40
54796;DHT22;40693;43.884;20.340;2022-12-05T10:55:17;487.00;1689.60
54796;DHT22;40693;43.884;20.340;2022-12-05T10:57:46;487.10;1638.40
54796;DHT22;40693;43.884;20.340;2022-12-05T11:00:14;487.30;1638.40
54796;DHT22;40693;43.884;20.340;2022-12-05T11:02:40;487.30;1612.80
54796;DHT22;40693;43.884;20.340;2022-12-05T11:05:06;487.30;1638.40
54796;DHT22;40693;43.884;20.340;2022-12-05T11:09:58;487.20;1612.80
54796;DHT22;40693;43.884;20.340;2022-12-05T11:12:45;486.90;1638.40
54796;DHT22;40693;43.884;20.340;2022-12-05T11:17:47;486.90;1664.00
54796;DHT22;40693;43.884;20.340;2022-12-05T11:22:45;487.00;1638.40
54796;DHT22;40693;43.884;20.340;2022-12-05T11:27:49;487.10;1638.40
54796;DHT22;40693;43.884;20.340;2022-12-05T11:30:18;486.90;1638.40
54796;DHT22;40693;43.884;20.340;2022-12-05T11:32:44;486.80;1638.40
54796;DHT22;40693;43.884;20.340;2022-12-05T11:40:27;487.00;1638.40
54796;DHT22;40693;43.884;20.340;2022-12-05T11:48:10;486.60;1664.00
54796;DHT22;40693;43.884;20.340;2022-12-05T11:50:45;486.60;1689.60
54796;DHT22;40693;43.884;20.340;2022-12-05T11:58:31;461.40;1740.80
54796;DHT22;40693;43.884;20.340;2022-12-05T12:11:19;461.20;1792.00
54796;DHT22;40693;43.884;20.340;2022-12-05T12:16:25;460.90;1792.00
54796;DHT22;40693;43.884;20.340;2022-12-05T12:29:50;435.40;1894.40
54796;DHT22;40693;43.884;20.340;2022-12-05T12:34:59;435.30;1894.40
54796;DHT22;40693;43.884;20.340;2022-12-05T12:45:26;410.20;1945.60
54796;DHT22;40693;43.884;20.340;2022-12-05T12:50:41;410.10;1945.60
54796;DHT22;40693;43.884;20.340;2022-12-05T12:53:20;410.10;1945.60
54796;DHT22;40693;43.884;20.340;2022-12-05T12:58:49;410.10;1971.20
54796;DHT22;40693;43.884;20.340;2022-12-05T13:03:51;410.30;1945.60
54796;DHT22;40693;43.884;20.340;2022-12-05T13:06:23;410.30;1920.00
54796;DHT22;40693;43.884;20.340;2022-12-05T13:08:55;435.20;1920.00
54796;DHT22;40693;43.884;20.340;2022-12-05T13:11:22;435.40;1945.60
54796;DHT22;40693;43.884;20.340;2022-12-05T13:13:49;435.80;1920.00
54796;DHT22;40693;43.884;20.340;2022-12-05T13:16:22;435.90;1894.40
54796;DHT22;40693;43.884;20.340;2022-12-05T13:18:48;436.00;1843.20
54796;DHT22;40693;43.884;20.340;2022-12-05T13:21:14;436.10;1843.20
54796;DHT22;40693;43.884;20.340;2022-12-05T13:23:42;436.10;1843.20
54796;DHT22;40693;43.884;20.340;2022-12-05T13:26:09;436.10;1843.20
54796;DHT22;40693;43.884;20.340;2022-12-05T13:28:37;460.80;1868.80
54796;DHT22;40693;43.884;20.340;2022-12-05T13:31:07;436.10;1817.60
54796;DHT22;40693;43.884;20.340;2022-12-05T13:33:54;436.10;1817.60
54796;DHT22;40693;43.884;20.340;2022-12-05T13:36:19;436.10;1817.60
54796;DHT22;40693;43.884;20.340;2022-12-05T13:39:05;436.00;1843.20
54796;DHT22;40693;43.884;20.340;2022-12-05T13:41:54;435.80;1843.20
54796;DHT22;40693;43.884;20.340;2022-12-05T13:44:52;435.80;1843.20
54796;DHT22;40693;43.884;20.340;2022-12-05T13:47:26;435.60;1868.80
54796;DHT22;40693;43.884;20.340;2022-12-05T13:52:30;435.60;1868.80
54796;DHT22;40693;43.884;20.340;2022-12-05T13:54:59;435.60;1894.40
54796;DHT22;40693;43.884;20.340;2022-12-05T14:10:17;410.50;1971.20
54796;DHT22;40693;43.884;20.340;2022-12-05T14:15:23;410.30;1971.20
54796;DHT22;40693;43.884;20.340;2022-12-05T14:17:48;410.30;1945.60
54796;DHT22;40693;43.884;20.340;2022-12-05T14:20:37;410.20;1971.20
54796;DHT22;40693;43.884;20.340;2022-12-05T14:25:39;410.10;1971.20
54796;DHT22;40693;43.884;20.340;2022-12-05T14:33:01;409.60;2022.40
54796;DHT22;40693;43.884;20.340;2022-12-05T14:35:28;384.80;1996.80
54796;DHT22;40693;43.884;20.340;2022-12-05T14:37:55;384.60;1996.80
54796;DHT22;40693;43.884;20.340;2022-12-05T14:40:31;384.40;2022.40
54796;DHT22;40693;43.884;20.340;2022-12-05T14:46:03;384.10;2048.00
54796;DHT22;40693;43.884;20.340;2022-12-05T14:48:31;384.00;2073.60
54796;DHT22;40693;43.884;20.340;2022-12-05T14:50:58;359.30;2099.20
54796;DHT22;40693;43.884;20.340;2022-12-05T15:01:01;358.90;2150.40
54796;DHT22;40693;43.884;20.340;2022-12-05T15:03:31;358.60;2176.00
54796;DHT22;40693;43.884;20.340;2022-12-05T15:05:58;358.50;2201.60
54796;DHT22;40693;43.884;20.340;2022-12-05T15:08:26;358.40;2227.20
54796;DHT22;40693;43.884;20.340;2022-12-05T15:10:54;333.70;2252.80
54796;DHT22;40693;43.884;20.340;2022-12-05T15:13:21;333.60;2278.40
54796;DHT22;40693;43.884;20.340;2022-12-05T15:20:53;333.40;2329.60
54796;DHT22;40693;43.884;20.340;2022-12-05T15:26:11;333.20;2329.60
54796;DHT22;40693;43.884;20.340;2022-12-05T15:28:40;333.00;2329.60
54796;DHT22;40693;43.884;20.340;2022-12-05T15:31:07;332.90;2329.60
54796;DHT22;40693;43.884;20.340;2022-12-05T15:33:36;332.90;2329.60
54796;DHT22;40693;43.884;20.340;2022-12-05T15:36:13;332.80;2329.60
54796;DHT22;40693;43.884;20.340;2022-12-05T15:38:39;308.00;2304.00
54796;DHT22;40693;43.884;20.340;2022-12-05T15:41:08;308.00;2304.00
54796;DHT22;40693;43.884;20.340;2022-12-05T15:43:40;307.90;2304.00
54796;DHT22;40693;43.884;20.340;2022-12-05T15:46:18;307.80;2304.00
54796;DHT22;40693;43.884;20.340;2022-12-05T15:48:45;307.70;2304.00
54796;DHT22;40693;43.884;20.340;2022-12-05T15:51:10;307.50;2304.00
54796;DHT22;40693;43.884;20.340;2022-12-05T15:53:39;307.50;2304.00
54796;DHT22;40693;43.884;20.340;2022-12-05T16:01:01;307.30;2304.00
54796;DHT22;40693;43.884;20.340;2022-12-05T16:06:31;307.30;2304.00
54796;DHT22;40693;43.884;20.340;2022-12-05T16:08:54;307.40;2304.00
54796;DHT22;40693;43.884;20.340;2022-12-05T16:11:21;307.20;2304.00
54796;DHT22;40693;43.884;20.340;2022-12-05T16:13:48;307.20;2304.00
54796;DHT22;40693;43.884;20.340;2022-12-05T16:16:18;282.50;2278.40
54796;DHT22;40693;43.884;20.340;2022-12-05T16:18:52;282.50;2278.40
54796;DHT22;40693;43.884;20.340;2022-12-05T16:23:58;282.40;2278.40
54796;DHT22;40693;43.884;20.340;2022-12-05T16:26:24;282.40;2278.40
54796;DHT22;40693;43.884;20.340;2022-12-05T16:28:56;282.30;2278.40
54796;DHT22;40693;43.884;20.340;2022-12-05T16:31:23;282.20;2278.40
54796;DHT22;40693;43.884;20.340;2022-12-05T16:33:57;282.30;2278.40
54796;DHT22;40693;43.884;20.340;2022-12-05T16:36:24;282.20;2278.40
54796;DHT22;40693;43.884;20.340;2022-12-05T16:38:50;282.10;2278.40
54796;DHT22;40693;43.884;20.340;2022-12-05T16:41:30;282.10;2278.40
54796;DHT22;40693;43.884;20.340;2022-12-05T16:43:56;282.00;2278.40
54796;DHT22;40693;43.884;20.340;2022-12-05T16:51:39;281.80;2278.40
54796;DHT22;40693;43.884;20.340;2022-12-05T16:54:06;281.60;2278.40
54796;DHT22;40693;43.884;20.340;2022-12-05T16:56:32;281.60;2278.40
54796;DHT22;40693;43.884;20.340;2022-12-05T16:59:04;281.60;2278.40
54796;DHT22;40693;43.884;20.340;2022-12-05T17:01:30;281.60;2278.40
54796;DHT22;40693;43.884;20.340;2022-12-05T17:03:55;256.90;2252.80
54796;DHT22;40693;43.884;20.340;2022-12-05T17:06:22;256.80;2252.80
54796;DHT22;40693;43.884;20.340;2022-12-05T17:08:48;256.80;2252.80
54796;DHT22;40693;43.884;20.340;2022-12-05T17:11:18;256.80;2252.80
54796;DHT22;40693;43.884;20.340;2022-12-05T17:13:45;256.70;2252.80
54796;DHT22;40693;43.884;20.340;2022-12-05T17:16:15;256.60;2252.80
54796;DHT22;40693;43.884;20.340;2022-12-05T17:18:42;256.40;2252.80
54796;DHT22;40693;43.884;20.340;2022-12-05T17:21:09;256.70;2252.80
54796;DHT22;40693;43.884;20.340;2022-12-05T17:23:37;256.50;2252.80
54796;DHT22;40693;43.884;20.340;2022-12-05T17:26:02;256.50;2252.80
54796;DHT22;40693;43.884;20.340;2022-12-05T17:28:28;256.40;2252.80
54796;DHT22;40693;43.884;20.340;2022-12-05T17:30:53;256.40;2252.80
54796;DHT22;40693;43.884;20.340;2022-12-05T17:33:19;256.40;2252.80
54796;DHT22;40693;43.884;20.340;2022-12-05T17:35:45;256.40;2252.80
54796;DHT22;40693;43.884;20.340;2022-12-05T17:38:11;256.40;2252.80
54796;DHT22;40693;43.884;20.340;2022-12-05T17:40:37;256.40;2252.80
54796;DHT22;40693;43.884;20.340;2022-12-05T17:43:03;256.30;2252.80
54796;DHT22;40693;43.884;20.340;2022-12-05T17:45:29;256.30;2252.80
54796;DHT22;40693;43.884;20.340;2022-12-05T17:47:55;256.30;2252.80
54796;DHT22;40693;43.884;20.340;2022-12-05T17:50:21;256.00;2252.80
54796;DHT22;40693;43.884;20.340;2022-12-05T17:52:49;256.20;2252.80
54796;DHT22;40693;43.884;20.340;2022-12-05T17:55:18;256.20;2252.80